Time;durP1;ratioP1;P1;durP2;ratioP2;P2;SDS_P1;SDS_P2;PMS_P1;PMS_P2;Temp;Humidity;BMP_temperature;BMP_pressure;BME280_temperature;BME280_humidity;BME280_pressure;Samples;Min_cycle;Max_cycle;Signal;HPM_P1;HPM_P2
2021/08/03 00:00:34;;;;;;;;;;;24.50;59.30;;;;;;5113907;28;19924;-59
2021/08/03 00:03:06;;;;;;;;;;;24.50;58.70;;;;;;5097106;27;19962;-59
2021/08/03 00:05:36;;;;;;;;;;;24.50;58.70;;;;;;5135877;27;20018;-59
2021/08/03 00:08:08;;;;;;;;;;;24.50;58.50;;;;;;5137343;27;19928;-60
2021/08/03 00:10:36;;;;;;;;;;;24.50;58.60;;;;;;5135928;27;19923;-59
2021/08/03 00:13:03;;;;;;;;;;;24.50;58.60;;;;;;5137478;27;19950;-59
2021/08/03 00:15:30;;;;;;;;;;;24.50;58.60;;;;;;5135654;27;20324;-60
2021/08/03 00:17:57;;;;;;;;;;;24.40;58.50;;;;;;5118709;27;19961;-60
2021/08/03 00:20:25;;;;;;;;;;;24.40;58.50;;;;;;5136027;27;19966;-59
2021/08/03 00:22:55;;;;;;;;;;;24.40;58.60;;;;;;5135890;27;19982;-59
2021/08/03 00:25:23;;;;;;;;;;;24.40;58.60;;;;;;5135709;27;20010;-59
2021/08/03 00:27:50;;;;;;;;;;;24.40;58.70;;;;;;5116217;27;19931;-59
2021/08/03 00:30:17;;;;;;;;;;;24.40;58.70;;;;;;5136072;27;20316;-59
2021/08/03 00:32:46;;;;;;;;;;;24.40;58.70;;;;;;5134213;27;20015;-59
2021/08/03 00:35:13;;;;;;;;;;;24.40;58.70;;;;;;5118574;27;20014;-59
2021/08/03 00:37:39;;;;;;;;;;;24.40;58.70;;;;;;5136695;27;19978;-59
2021/08/03 00:40:07;;;;;;;;;;;24.40;58.70;;;;;;5136097;27;19923;-60
2021/08/03 00:42:34;;;;;;;;;;;24.40;58.70;;;;;;5117289;27;19959;-59
2021/08/03 00:45:02;;;;;;;;;;;24.40;58.80;;;;;;5135473;27;19923;-60
2021/08/03 00:47:29;;;;;;;;;;;24.40;58.70;;;;;;5136552;27;20363;-59
2021/08/03 00:49:56;;;;;;;;;;;24.40;58.80;;;;;;5135511;27;19929;-60
2021/08/03 00:52:26;;;;;;;;;;;24.40;58.70;;;;;;5134204;27;19969;-61
2021/08/03 00:54:54;;;;;;;;;;;24.40;58.80;;;;;;5136493;27;20013;-60
2021/08/03 00:57:21;;;;;;;;;;;24.30;58.70;;;;;;5134864;27;19959;-59
2021/08/03 00:59:48;;;;;;;;;;;24.30;58.70;;;;;;5136423;27;20014;-59
2021/08/03 01:02:15;;;;;;;;;;;24.30;58.80;;;;;;5122700;27;19927;-59
2021/08/03 01:04:42;;;;;;;;;;;24.30;58.90;;;;;;5130465;27;19936;-59
2021/08/03 01:07:12;;;;;;;;;;;24.30;58.80;;;;;;5126155;27;19942;-60
2021/08/03 01:09:44;;;;;;;;;;;24.30;58.80;;;;;;5127162;27;19923;-60
2021/08/03 01:12:18;;;;;;;;;;;24.30;58.90;;;;;;5127255;27;19985;-60
2021/08/03 01:14:50;;;;;;;;;;;24.30;59.00;;;;;;5125176;27;19931;-59
2021/08/03 01:17:29;;;;;;;;;;;24.30;58.90;;;;;;5134426;27;19923;-59
2021/08/03 01:19:59;;;;;;;;;;;24.30;58.90;;;;;;5134639;27;20324;-60
2021/08/03 01:22:29;;;;;;;;;;;24.30;58.90;;;;;;5133469;27;19934;-61
2021/08/03 01:25:15;;;;;;;;;;;24.30;58.90;;;;;;5135843;27;20006;-60
2021/08/03 01:28:00;;;;;;;;;;;24.30;59.00;;;;;;5134852;27;19927;-60
2021/08/03 01:30:27;;;;;;;;;;;24.30;59.10;;;;;;5134370;27;19924;-60
2021/08/03 01:32:54;;;;;;;;;;;24.30;58.90;;;;;;5133294;27;19967;-60
2021/08/03 01:35:22;;;;;;;;;;;24.30;58.90;;;;;;5135094;27;19923;-59
2021/08/03 01:37:50;;;;;;;;;;;24.30;58.70;;;;;;5132788;27;19967;-60
2021/08/03 01:40:17;;;;;;;;;;;24.30;58.80;;;;;;5135580;27;19923;-59
2021/08/03 01:42:45;;;;;;;;;;;24.30;58.90;;;;;;5135591;27;19930;-59
2021/08/03 01:45:12;;;;;;;;;;;24.30;58.90;;;;;;5135369;27;19985;-59
2021/08/03 01:47:39;;;;;;;;;;;24.30;58.90;;;;;;5134170;27;20332;-60
2021/08/03 01:50:08;;;;;;;;;;;24.30;59.00;;;;;;5133729;27;19924;-60
2021/08/03 01:52:36;;;;;;;;;;;24.30;59.00;;;;;;5135327;27;19923;-60
2021/08/03 01:55:05;;;;;;;;;;;24.30;59.10;;;;;;5130817;27;20111;-60
2021/08/03 01:57:32;;;;;;;;;;;24.30;59.10;;;;;;5120098;27;19971;-60
2021/08/03 02:00:00;;;;;;;;;;;24.30;59.00;;;;;;5132596;27;19923;-60
2021/08/03 02:02:27;;;;;;;;;;;24.30;58.90;;;;;;5116733;27;19924;-60
2021/08/03 02:04:56;;;;;;;;;;;24.30;59.00;;;;;;5135245;27;19923;-61
2021/08/03 02:07:23;;;;;;;;;;;24.30;59.00;;;;;;5135075;27;19927;-60
2021/08/03 02:09:53;;;;;;;;;;;24.30;59.00;;;;;;5134852;27;20393;-60
2021/08/03 02:12:20;;;;;;;;;;;24.30;59.00;;;;;;5134282;27;20328;-60
2021/08/03 02:14:47;;;;;;;;;;;24.30;58.90;;;;;;5116620;27;20014;-60
2021/08/03 02:17:19;;;;;;;;;;;24.20;58.80;;;;;;5132033;27;20462;-59
2021/08/03 02:19:46;;;;;;;;;;;24.20;58.80;;;;;;5134579;27;19930;-60
2021/08/03 02:22:14;;;;;;;;;;;24.20;58.80;;;;;;5132177;27;20346;-60
2021/08/03 02:24:41;;;;;;;;;;;24.20;58.90;;;;;;5133085;27;19976;-59
2021/08/03 02:27:09;;;;;;;;;;;24.20;58.90;;;;;;5132834;27;20343;-60
2021/08/03 02:29:37;;;;;;;;;;;24.20;58.90;;;;;;5134210;27;19969;-59
2021/08/03 02:32:07;;;;;;;;;;;24.20;58.90;;;;;;5133523;27;19984;-59
2021/08/03 02:34:36;;;;;;;;;;;24.20;59.10;;;;;;5134621;27;20068;-60
2021/08/03 02:37:05;;;;;;;;;;;24.20;58.90;;;;;;5128756;27;19927;-60
2021/08/03 02:39:33;;;;;;;;;;;24.20;58.90;;;;;;5133220;27;19995;-60
2021/08/03 02:42:00;;;;;;;;;;;24.20;58.90;;;;;;5133426;27;20327;-60
2021/08/03 02:44:28;;;;;;;;;;;24.20;59.00;;;;;;5131870;27;19927;-60
2021/08/03 02:46:58;;;;;;;;;;;24.20;59.10;;;;;;5134268;27;19923;-59
2021/08/03 02:50:08;;;;;;;;;;;24.20;59.10;;;;;;5132790;27;19931;-59
2021/08/03 02:52:17;;;;;;;;;;;24.20;59.20;;;;;;5126004;27;19923;-59
2021/08/03 02:54:47;;;;;;;;;;;24.10;59.10;;;;;;5124775;27;19927;-59
2021/08/03 02:57:14;;;;;;;;;;;24.20;59.10;;;;;;5115762;27;19924;-60
2021/08/03 02:59:46;;;;;;;;;;;24.20;59.00;;;;;;5123488;27;19969;-60
2021/08/03 03:02:14;;;;;;;;;;;24.10;59.10;;;;;;5131320;27;20417;-60
2021/08/03 03:04:44;;;;;;;;;;;24.10;59.10;;;;;;5132998;27;19924;-60
2021/08/03 03:07:15;;;;;;;;;;;24.10;59.20;;;;;;5131432;27;19984;-60
2021/08/03 03:09:42;;;;;;;;;;;24.20;59.20;;;;;;5132537;27;19972;-60
2021/08/03 03:12:10;;;;;;;;;;;24.10;59.00;;;;;;5133965;27;20337;-60
2021/08/03 03:14:38;;;;;;;;;;;24.20;59.20;;;;;;5131293;27;19923;-60
2021/08/03 03:17:06;;;;;;;;;;;24.20;59.10;;;;;;5115908;28;20511;-61
2021/08/03 03:19:35;;;;;;;;;;;24.20;59.10;;;;;;5132776;27;20006;-60
2021/08/03 03:22:04;;;;;;;;;;;24.20;59.00;;;;;;5132579;27;20328;-60
2021/08/03 03:24:31;;;;;;;;;;;24.20;59.10;;;;;;5134160;27;19924;-59
2021/08/03 03:26:59;;;;;;;;;;;24.10;59.00;;;;;;5114569;28;19973;-59
2021/08/03 03:29:26;;;;;;;;;;;24.10;59.00;;;;;;5132586;28;19976;-60
2021/08/03 03:31:55;;;;;;;;;;;24.10;59.10;;;;;;5132714;28;19971;-59
2021/08/03 03:34:24;;;;;;;;;;;24.10;59.10;;;;;;5133412;28;20383;-59
2021/08/03 03:36:52;;;;;;;;;;;24.10;59.10;;;;;;5117802;28;19967;-59
2021/08/03 03:39:19;;;;;;;;;;;24.10;59.10;;;;;;5133294;27;19924;-59
2021/08/03 03:41:49;;;;;;;;;;;24.10;59.10;;;;;;5121053;27;19967;-60
2021/08/03 03:44:16;;;;;;;;;;;24.20;59.10;;;;;;5120675;27;19930;-59
2021/08/03 03:46:52;;;;;;;;;;;24.20;59.10;;;;;;5134373;27;19923;-59
2021/08/03 03:49:22;;;;;;;;;;;24.20;59.00;;;;;;5136571;27;19931;-59
2021/08/03 03:51:49;;;;;;;;;;;24.20;59.00;;;;;;5135100;27;20375;-60
2021/08/03 03:54:22;;;;;;;;;;;24.20;59.00;;;;;;5136300;27;19923;-60
2021/08/03 03:56:53;;;;;;;;;;;24.10;58.80;;;;;;5137249;27;20010;-60
2021/08/03 03:59:21;;;;;;;;;;;24.10;59.00;;;;;;5136159;27;19930;-60
2021/08/03 04:01:52;;;;;;;;;;;24.10;59.10;;;;;;5135841;27;19924;-60
2021/08/03 04:04:19;;;;;;;;;;;24.10;59.10;;;;;;5135053;27;19954;-60
2021/08/03 04:06:46;;;;;;;;;;;24.10;59.10;;;;;;5135012;27;20339;-59
2021/08/03 04:09:20;;;;;;;;;;;24.10;59.00;;;;;;5134935;27;19982;-60
2021/08/03 04:11:48;;;;;;;;;;;24.10;59.00;;;;;;5135530;27;19923;-60
2021/08/03 04:14:17;;;;;;;;;;;24.10;59.10;;;;;;5136199;27;20020;-60
2021/08/03 04:16:44;;;;;;;;;;;24.10;59.10;;;;;;5134378;27;20298;-59
2021/08/03 04:19:11;;;;;;;;;;;24.10;59.00;;;;;;5118919;27;20010;-60
2021/08/03 04:21:38;;;;;;;;;;;24.10;59.00;;;;;;5135526;27;19978;-59
2021/08/03 04:24:05;;;;;;;;;;;24.10;59.00;;;;;;5136688;27;19972;-60
2021/08/03 04:26:32;;;;;;;;;;;24.10;59.00;;;;;;5135298;27;19978;-60
2021/08/03 04:28:59;;;;;;;;;;;24.10;59.00;;;;;;5137062;27;19955;-60
2021/08/03 04:31:26;;;;;;;;;;;24.10;59.10;;;;;;5135527;27;19923;-59
2021/08/03 04:33:53;;;;;;;;;;;24.10;59.10;;;;;;5136032;27;20366;-60
2021/08/03 04:36:20;;;;;;;;;;;24.10;59.10;;;;;;5118461;27;19946;-60
2021/08/03 04:38:47;;;;;;;;;;;24.10;59.00;;;;;;5136986;27;20373;-59
2021/08/03 04:41:14;;;;;;;;;;;24.10;58.90;;;;;;5136531;27;19993;-59
2021/08/03 04:43:42;;;;;;;;;;;24.10;59.00;;;;;;5136741;27;19923;-59
2021/08/03 04:46:09;;;;;;;;;;;24.10;59.00;;;;;;5135116;27;19988;-59
2021/08/03 04:48:36;;;;;;;;;;;24.10;59.10;;;;;;5134976;27;19930;-59
2021/08/03 04:51:03;;;;;;;;;;;24.10;59.10;;;;;;5135068;27;19927;-59
2021/08/03 04:53:30;;;;;;;;;;;24.10;59.10;;;;;;5136069;27;19923;-60
2021/08/03 04:55:57;;;;;;;;;;;24.10;59.10;;;;;;5134874;27;19962;-60
2021/08/03 04:58:24;;;;;;;;;;;24.10;59.00;;;;;;5133822;27;19924;-60
2021/08/03 05:00:53;;;;;;;;;;;24.20;59.20;;;;;;5134298;27;20217;-59
2021/08/03 05:03:20;;;;;;;;;;;24.20;59.10;;;;;;5133855;27;19945;-59
2021/08/03 05:05:47;;;;;;;;;;;24.20;59.00;;;;;;5134918;27;19923;-60
2021/08/03 05:08:14;;;;;;;;;;;24.30;59.00;;;;;;5133450;27;19976;-59
2021/08/03 05:10:41;;;;;;;;;;;24.30;58.90;;;;;;5136180;27;19923;-59
2021/08/03 05:13:08;;;;;;;;;;;24.30;58.80;;;;;;5133713;27;19955;-60
2021/08/03 05:15:35;;;;;;;;;;;24.40;58.80;;;;;;5135878;27;19960;-60
2021/08/03 05:18:02;;;;;;;;;;;24.40;58.70;;;;;;5135026;27;19928;-60
2021/08/03 05:20:29;;;;;;;;;;;24.40;58.60;;;;;;5134494;27;19923;-59
2021/08/03 05:22:56;;;;;;;;;;;24.40;58.50;;;;;;5134216;27;19972;-60
2021/08/03 05:25:23;;;;;;;;;;;24.50;58.50;;;;;;5136002;27;19924;-60
2021/08/03 05:27:50;;;;;;;;;;;24.50;58.50;;;;;;5135387;27;20324;-59
2021/08/03 05:30:17;;;;;;;;;;;24.50;58.40;;;;;;5117684;27;20305;-59
2021/08/03 05:32:44;;;;;;;;;;;24.60;58.30;;;;;;5117551;27;19969;-60
2021/08/03 05:35:11;;;;;;;;;;;24.60;58.30;;;;;;5115782;27;19938;-60
2021/08/03 05:37:38;;;;;;;;;;;24.60;58.30;;;;;;5135557;27;20019;-59
2021/08/03 05:40:09;;;;;;;;;;;24.60;58.20;;;;;;5117269;27;19923;-59
2021/08/03 05:42:36;;;;;;;;;;;24.60;58.10;;;;;;5135592;27;20039;-60
2021/08/03 05:45:04;;;;;;;;;;;24.60;58.10;;;;;;5134405;27;19963;-59
2021/08/03 05:47:31;;;;;;;;;;;24.70;58.00;;;;;;5135188;27;19923;-60
2021/08/03 05:49:58;;;;;;;;;;;24.70;58.10;;;;;;5134120;27;19954;-60
2021/08/03 05:52:25;;;;;;;;;;;24.70;58.10;;;;;;5133499;27;19928;-59
2021/08/03 05:54:52;;;;;;;;;;;24.70;58.00;;;;;;5135222;27;20010;-60
2021/08/03 05:57:19;;;;;;;;;;;24.70;58.10;;;;;;5134090;27;19923;-60
2021/08/03 05:59:46;;;;;;;;;;;24.70;58.10;;;;;;5133899;27;20002;-59
2021/08/03 06:02:13;;;;;;;;;;;24.70;58.00;;;;;;5134191;27;19928;-59
2021/08/03 06:04:40;;;;;;;;;;;24.80;58.10;;;;;;5114658;27;19946;-60
2021/08/03 06:07:10;;;;;;;;;;;24.80;58.10;;;;;;5133575;27;19970;-60
2021/08/03 06:09:37;;;;;;;;;;;24.80;58.00;;;;;;5132128;27;19970;-59
2021/08/03 06:12:04;;;;;;;;;;;24.80;58.00;;;;;;5132325;27;19927;-60
2021/08/03 06:14:35;;;;;;;;;;;24.80;58.00;;;;;;5133221;27;19923;-60
2021/08/03 06:17:07;;;;;;;;;;;24.80;58.00;;;;;;5133048;27;19923;-59
2021/08/03 06:19:41;;;;;;;;;;;24.80;57.80;;;;;;5132432;27;19946;-59
2021/08/03 06:22:09;;;;;;;;;;;24.80;57.80;;;;;;5132450;27;20329;-59
2021/08/03 06:24:37;;;;;;;;;;;24.80;57.80;;;;;;5131519;27;19982;-60
2021/08/03 06:27:08;;;;;;;;;;;24.90;57.90;;;;;;5118890;27;19923;-59
2021/08/03 06:29:37;;;;;;;;;;;24.90;57.80;;;;;;5133297;27;19962;-59
2021/08/03 06:32:05;;;;;;;;;;;24.90;57.40;;;;;;5133853;27;19963;-59
2021/08/03 06:34:34;;;;;;;;;;;24.80;57.40;;;;;;5117316;27;19924;-59
2021/08/03 06:37:01;;;;;;;;;;;24.90;57.70;;;;;;5115068;27;19923;-59
2021/08/03 06:39:28;;;;;;;;;;;24.90;57.60;;;;;;5134463;27;20345;-60
2021/08/03 06:42:21;;;;;;;;;;;24.90;57.60;;;;;;5133132;27;20394;-59
2021/08/03 06:44:57;;;;;;;;;;;24.90;57.50;;;;;;5111083;27;19975;-60
2021/08/03 06:47:32;;;;;;;;;;;24.90;57.70;;;;;;5132982;27;19962;-60
2021/08/03 06:50:02;;;;;;;;;;;24.90;57.60;;;;;;5132034;27;19924;-60
2021/08/03 06:52:29;;;;;;;;;;;24.90;57.70;;;;;;5132809;27;19973;-59
2021/08/03 06:55:01;;;;;;;;;;;24.90;57.60;;;;;;5111843;28;20451;-60
2021/08/03 06:57:31;;;;;;;;;;;24.90;57.70;;;;;;5113476;28;19946;-59
2021/08/03 07:00:01;;;;;;;;;;;25.00;57.80;;;;;;5113551;28;19970;-59
2021/08/03 07:02:29;;;;;;;;;;;25.00;57.60;;;;;;5112516;28;19924;-59
2021/08/03 07:04:58;;;;;;;;;;;25.00;57.60;;;;;;5112441;28;19967;-60
2021/08/03 07:07:26;;;;;;;;;;;25.00;57.60;;;;;;5113456;28;19927;-59
2021/08/03 07:09:55;;;;;;;;;;;25.10;57.70;;;;;;5112352;28;19932;-60
2021/08/03 07:12:22;;;;;;;;;;;25.10;57.50;;;;;;5112919;28;20048;-59
2021/08/03 07:14:50;;;;;;;;;;;25.20;57.60;;;;;;5097202;28;19925;-59
2021/08/03 07:17:17;;;;;;;;;;;25.30;57.30;;;;;;5095225;28;19963;-60
2021/08/03 07:19:45;;;;;;;;;;;25.30;57.10;;;;;;5109905;28;19927;-60
2021/08/03 07:22:13;;;;;;;;;;;25.30;57.10;;;;;;5113170;28;20015;-60
2021/08/03 07:24:45;;;;;;;;;;;25.40;57.00;;;;;;5111940;28;19968;-59
2021/08/03 07:27:13;;;;;;;;;;;25.40;57.00;;;;;;5100406;28;19970;-59
2021/08/03 07:29:40;;;;;;;;;;;25.50;57.00;;;;;;5104430;28;19924;-59
2021/08/03 07:32:08;;;;;;;;;;;25.60;56.80;;;;;;5112732;28;19923;-60
2021/08/03 07:34:36;;;;;;;;;;;25.60;56.60;;;;;;5110068;28;19967;-59
2021/08/03 07:37:04;;;;;;;;;;;25.60;56.60;;;;;;5107098;28;20325;-60
2021/08/03 07:39:31;;;;;;;;;;;25.70;56.50;;;;;;5113084;28;19927;-59
2021/08/03 07:41:58;;;;;;;;;;;25.70;56.30;;;;;;5113108;28;20282;-60
2021/08/03 07:44:25;;;;;;;;;;;25.80;56.30;;;;;;5111348;28;20018;-59
2021/08/03 07:46:53;;;;;;;;;;;25.80;56.20;;;;;;5111932;28;20329;-60
2021/08/03 07:49:20;;;;;;;;;;;25.90;56.20;;;;;;5111678;28;19984;-60
2021/08/03 07:51:47;;;;;;;;;;;25.90;55.90;;;;;;5113069;28;20326;-60
2021/08/03 07:54:14;;;;;;;;;;;25.90;56.00;;;;;;5111387;28;20002;-60
2021/08/03 07:56:41;;;;;;;;;;;25.90;56.10;;;;;;5127478;28;20350;-59
2021/08/03 07:59:08;;;;;;;;;;;26.00;55.90;;;;;;5132109;28;20272;-60
2021/08/03 08:01:35;;;;;;;;;;;26.00;55.90;;;;;;5133383;28;20394;-60
2021/08/03 08:04:03;;;;;;;;;;;26.00;55.80;;;;;;5113264;28;19924;-60
2021/08/03 08:06:30;;;;;;;;;;;26.00;55.60;;;;;;5132899;28;19959;-61
2021/08/03 08:09:15;;;;;;;;;;;26.10;55.50;;;;;;5116953;28;19927;-59
2021/08/03 08:11:42;;;;;;;;;;;26.10;55.50;;;;;;5132634;28;19923;-60
2021/08/03 08:14:09;;;;;;;;;;;26.10;55.40;;;;;;5132715;28;20083;-59
2021/08/03 08:16:35;;;;;;;;;;;26.10;55.30;;;;;;5131545;28;19923;-60
2021/08/03 08:19:03;;;;;;;;;;;26.10;55.30;;;;;;5117507;28;19923;-60
2021/08/03 08:21:33;;;;;;;;;;;26.10;55.50;;;;;;5131172;28;20010;-59
2021/08/03 08:24:01;;;;;;;;;;;26.10;55.50;;;;;;5133191;27;19923;-60
2021/08/03 08:26:28;;;;;;;;;;;26.10;55.60;;;;;;5137034;27;19923;-59
2021/08/03 08:28:55;;;;;;;;;;;26.10;55.60;;;;;;5137077;27;19928;-60
2021/08/03 08:31:22;;;;;;;;;;;26.10;55.70;;;;;;5136921;27;19927;-60
2021/08/03 08:33:49;;;;;;;;;;;26.10;55.30;;;;;;5134520;27;19939;-60
2021/08/03 08:36:16;;;;;;;;;;;26.10;55.50;;;;;;5135549;27;20275;-60
2021/08/03 08:38:43;;;;;;;;;;;26.00;55.70;;;;;;5134295;27;19923;-60
2021/08/03 08:41:11;;;;;;;;;;;26.00;55.80;;;;;;5135165;27;19969;-60
2021/08/03 08:43:39;;;;;;;;;;;26.00;55.80;;;;;;5135451;27;20513;-60
2021/08/03 08:46:07;;;;;;;;;;;26.00;55.80;;;;;;5135201;27;19923;-60
2021/08/03 08:48:36;;;;;;;;;;;26.00;56.00;;;;;;5136437;27;19927;-60
2021/08/03 08:51:04;;;;;;;;;;;26.00;55.80;;;;;;5116855;27;19924;-60
2021/08/03 08:53:33;;;;;;;;;;;26.10;56.00;;;;;;5134926;27;20014;-60
2021/08/03 08:56:02;;;;;;;;;;;26.00;56.00;;;;;;5135057;27;20398;-60
2021/08/03 08:58:38;;;;;;;;;;;26.00;56.10;;;;;;5135208;27;20354;-60
2021/08/03 09:01:05;;;;;;;;;;;26.00;56.00;;;;;;5116105;27;20349;-59
2021/08/03 09:03:32;;;;;;;;;;;26.00;56.00;;;;;;5120549;27;20014;-60
2021/08/03 09:06:00;;;;;;;;;;;26.10;55.90;;;;;;5135816;27;19976;-60
2021/08/03 09:08:53;;;;;;;;;;;26.10;55.70;;;;;;5136395;27;20345;-59
2021/08/03 09:11:21;;;;;;;;;;;26.00;55.90;;;;;;5116454;27;19930;-59
2021/08/03 09:13:49;;;;;;;;;;;26.10;56.10;;;;;;5133417;27;19930;-60
2021/08/03 09:16:16;;;;;;;;;;;26.10;55.60;;;;;;5117517;27;19959;-59
2021/08/03 09:18:47;;;;;;;;;;;26.10;55.80;;;;;;5117521;27;19924;-60
2021/08/03 09:21:18;;;;;;;;;;;26.00;55.80;;;;;;5134770;27;19968;-59
2021/08/03 09:23:52;;;;;;;;;;;26.10;55.60;;;;;;5135204;27;19968;-60
2021/08/03 09:26:21;;;;;;;;;;;26.00;55.90;;;;;;5117517;27;19931;-60
2021/08/03 09:28:54;;;;;;;;;;;26.00;56.00;;;;;;5135783;27;20010;-60
2021/08/03 09:31:21;;;;;;;;;;;26.00;56.30;;;;;;5134792;27;19930;-60
2021/08/03 09:33:48;;;;;;;;;;;26.00;56.50;;;;;;5135241;27;19923;-60
2021/08/03 09:36:15;;;;;;;;;;;25.90;56.40;;;;;;5122945;27;19961;-59
2021/08/03 09:38:42;;;;;;;;;;;25.90;56.40;;;;;;5133931;27;19938;-59
2021/08/03 09:41:09;;;;;;;;;;;25.90;56.30;;;;;;5133036;27;19973;-59
2021/08/03 09:43:37;;;;;;;;;;;25.90;56.30;;;;;;5135459;27;19960;-60
2021/08/03 09:46:04;;;;;;;;;;;25.90;56.10;;;;;;5114503;27;19928;-60
2021/08/03 09:48:31;;;;;;;;;;;25.90;56.40;;;;;;5114956;27;19924;-59
2021/08/03 09:51:00;;;;;;;;;;;25.80;56.60;;;;;;5135148;27;19923;-59
2021/08/03 09:53:36;;;;;;;;;;;25.80;56.70;;;;;;5132617;27;19923;-60
2021/08/03 09:56:04;;;;;;;;;;;25.80;56.60;;;;;;5135043;27;19966;-60
2021/08/03 09:58:33;;;;;;;;;;;25.80;56.80;;;;;;5134965;27;19923;-60
2021/08/03 10:01:20;;;;;;;;;;;25.80;56.80;;;;;;5132514;27;20401;-60
2021/08/03 10:03:48;;;;;;;;;;;25.80;56.70;;;;;;5129999;27;19930;-59
2021/08/03 10:06:17;;;;;;;;;;;25.80;57.50;;;;;;5135130;27;19932;-60
2021/08/03 10:08:46;;;;;;;;;;;25.80;57.00;;;;;;5116931;27;19931;-60
2021/08/03 10:11:14;;;;;;;;;;;25.80;57.00;;;;;;5133618;27;19966;-60
2021/08/03 10:13:42;;;;;;;;;;;25.80;57.10;;;;;;5115073;27;20006;-60
2021/08/03 10:16:09;;;;;;;;;;;25.80;57.00;;;;;;5127135;27;19953;-59
2021/08/03 10:18:37;;;;;;;;;;;25.90;57.20;;;;;;5123221;27;20256;-60
2021/08/03 10:21:06;;;;;;;;;;;25.90;57.10;;;;;;5133703;27;20016;-60
2021/08/03 10:23:36;;;;;;;;;;;25.90;57.00;;;;;;5134595;27;19930;-60
2021/08/03 10:26:09;;;;;;;;;;;25.90;57.60;;;;;;5133483;27;20002;-60
2021/08/03 10:28:36;;;;;;;;;;;25.90;56.80;;;;;;5134540;27;20337;-60
2021/08/03 10:31:03;;;;;;;;;;;25.90;56.70;;;;;;5133263;27;20436;-60
2021/08/03 10:33:41;;;;;;;;;;;25.90;56.90;;;;;;5133264;27;19924;-59
2021/08/03 10:36:08;;;;;;;;;;;25.90;56.90;;;;;;5128943;27;19931;-61
2021/08/03 10:38:35;;;;;;;;;;;26.00;56.80;;;;;;5134204;27;20010;-60
2021/08/03 10:41:02;;;;;;;;;;;26.00;56.90;;;;;;5134004;27;20011;-60
2021/08/03 10:43:35;;;;;;;;;;;26.00;57.10;;;;;;5133201;27;20432;-60
2021/08/03 10:46:08;;;;;;;;;;;26.00;56.60;;;;;;5116040;27;19924;-60
2021/08/03 10:48:38;;;;;;;;;;;26.00;56.70;;;;;;5115973;27;19930;-60
2021/08/03 10:51:24;;;;;;;;;;;26.00;56.60;;;;;;5115376;27;20720;-60
2021/08/03 10:53:58;;;;;;;;;;;26.00;56.70;;;;;;5115498;28;20011;-60
2021/08/03 10:56:25;;;;;;;;;;;26.00;56.50;;;;;;5116491;27;19928;-60
2021/08/03 10:59:10;;;;;;;;;;;26.00;56.70;;;;;;5134056;27;20342;-60
2021/08/03 11:01:43;;;;;;;;;;;26.00;56.50;;;;;;5117137;27;19923;-59
2021/08/03 11:04:29;;;;;;;;;;;26.00;56.70;;;;;;5134121;27;19930;-60
2021/08/03 11:07:16;;;;;;;;;;;26.10;56.50;;;;;;5133659;27;19980;-60
2021/08/03 11:09:43;;;;;;;;;;;26.10;56.20;;;;;;5131862;27;19924;-60
2021/08/03 11:12:29;;;;;;;;;;;26.10;56.40;;;;;;5132774;27;19976;-60
2021/08/03 11:14:56;;;;;;;;;;;26.10;56.40;;;;;;5134031;27;19928;-59
2021/08/03 11:17:41;;;;;;;;;;;26.10;56.40;;;;;;5131438;27;19990;-60
2021/08/03 11:20:28;;;;;;;;;;;26.10;56.20;;;;;;5133969;27;19988;-60
2021/08/03 11:22:55;;;;;;;;;;;26.10;56.10;;;;;;5133589;27;19976;-60
2021/08/03 11:25:22;;;;;;;;;;;26.10;56.10;;;;;;5131792;27;19988;-60
2021/08/03 11:27:49;;;;;;;;;;;26.10;56.10;;;;;;5133630;27;19970;-60
2021/08/03 11:30:16;;;;;;;;;;;26.10;56.00;;;;;;5132086;27;20383;-60
2021/08/03 11:32:47;;;;;;;;;;;26.20;56.00;;;;;;5115248;28;19927;-60
2021/08/03 11:35:34;;;;;;;;;;;26.20;56.00;;;;;;5131651;28;19959;-59
2021/08/03 11:38:04;;;;;;;;;;;26.20;55.70;;;;;;5120996;28;19959;-59
2021/08/03 11:40:31;;;;;;;;;;;26.20;55.60;;;;;;5133472;28;20010;-60
2021/08/03 11:42:59;;;;;;;;;;;26.30;55.40;;;;;;5132439;28;19962;-60
2021/08/03 11:45:26;;;;;;;;;;;26.40;55.60;;;;;;5132743;28;20382;-60
2021/08/03 11:47:58;;;;;;;;;;;26.40;55.20;;;;;;5131217;28;19924;-60
2021/08/03 11:50:35;;;;;;;;;;;26.40;55.20;;;;;;5132089;28;19935;-59
2021/08/03 11:53:09;;;;;;;;;;;26.40;55.10;;;;;;5131109;28;20014;-60
2021/08/03 11:55:36;;;;;;;;;;;26.50;55.10;;;;;;5118246;28;19923;-60
2021/08/03 11:58:05;;;;;;;;;;;26.50;54.90;;;;;;5132575;28;20026;-60
2021/08/03 12:00:32;;;;;;;;;;;26.50;54.80;;;;;;5134210;27;19930;-60
2021/08/03 12:03:00;;;;;;;;;;;26.50;55.00;;;;;;5136634;27;19924;-59
2021/08/03 12:05:31;;;;;;;;;;;26.60;55.00;;;;;;5137135;27;19946;-59
2021/08/03 12:07:58;;;;;;;;;;;26.60;54.90;;;;;;5136231;27;19967;-60
2021/08/03 12:10:27;;;;;;;;;;;26.60;54.80;;;;;;5135826;27;19972;-59
2021/08/03 12:12:54;;;;;;;;;;;26.60;54.60;;;;;;5137266;27;20320;-60
2021/08/03 12:15:22;;;;;;;;;;;26.70;54.60;;;;;;5137230;27;19966;-60
2021/08/03 12:17:59;;;;;;;;;;;26.70;54.40;;;;;;5134774;27;19923;-59
2021/08/03 12:20:26;;;;;;;;;;;26.80;54.20;;;;;;5137212;27;20012;-59
2021/08/03 12:22:54;;;;;;;;;;;26.80;54.20;;;;;;5136880;27;19978;-59
2021/08/03 12:25:22;;;;;;;;;;;26.90;54.10;;;;;;5137217;27;19976;-60
2021/08/03 12:27:49;;;;;;;;;;;26.90;54.00;;;;;;5136496;27;19972;-60
2021/08/03 12:30:33;;;;;;;;;;;26.90;53.80;;;;;;5137062;27;19974;-60
2021/08/03 12:33:00;;;;;;;;;;;27.00;53.80;;;;;;5117327;27;20384;-60
2021/08/03 12:35:27;;;;;;;;;;;27.00;53.90;;;;;;5132809;27;19923;-60
2021/08/03 12:38:11;;;;;;;;;;;27.00;53.60;;;;;;5118648;27;19923;-60
2021/08/03 12:40:38;;;;;;;;;;;27.10;53.60;;;;;;5133780;27;19923;-60
2021/08/03 12:43:05;;;;;;;;;;;27.00;53.70;;;;;;5123548;27;19963;-60
2021/08/03 12:45:32;;;;;;;;;;;27.10;53.30;;;;;;5131892;27;19935;-60
2021/08/03 12:48:01;;;;;;;;;;;27.00;53.10;;;;;;5136123;27;19923;-60
2021/08/03 12:50:29;;;;;;;;;;;27.10;52.80;;;;;;5135525;27;20377;-59
2021/08/03 12:52:57;;;;;;;;;;;27.10;53.00;;;;;;5117187;27;20340;-61
2021/08/03 12:55:24;;;;;;;;;;;27.10;52.40;;;;;;5127630;27;20327;-60
2021/08/03 12:57:53;;;;;;;;;;;27.10;52.40;;;;;;5125704;27;20352;-60
2021/08/03 13:00:27;;;;;;;;;;;27.10;52.60;;;;;;5134863;27;20413;-60
2021/08/03 13:02:54;;;;;;;;;;;27.10;52.70;;;;;;5136143;27;19923;-59
2021/08/03 13:05:21;;;;;;;;;;;27.10;52.50;;;;;;5136161;27;19969;-60
2021/08/03 13:07:48;;;;;;;;;;;27.10;52.40;;;;;;5136246;27;19927;-60
2021/08/03 13:10:15;;;;;;;;;;;27.10;52.60;;;;;;5134670;27;19927;-60
2021/08/03 13:12:42;;;;;;;;;;;27.10;51.90;;;;;;5135310;27;19961;-60
2021/08/03 13:15:11;;;;;;;;;;;27.10;52.30;;;;;;5134712;27;20314;-60
2021/08/03 13:17:37;;;;;;;;;;;27.10;52.30;;;;;;5133483;27;20260;-60
2021/08/03 13:20:06;;;;;;;;;;;27.20;52.30;;;;;;5118004;27;19923;-60
2021/08/03 13:22:34;;;;;;;;;;;27.20;52.60;;;;;;5136246;27;20354;-60
2021/08/03 13:25:02;;;;;;;;;;;27.20;52.40;;;;;;5136204;27;20355;-60
2021/08/03 13:27:29;;;;;;;;;;;27.20;52.20;;;;;;5133645;27;19927;-60
2021/08/03 13:29:56;;;;;;;;;;;27.20;52.40;;;;;;5134958;27;20024;-61
2021/08/03 13:32:23;;;;;;;;;;;27.20;52.40;;;;;;5118806;27;20014;-60
2021/08/03 13:34:50;;;;;;;;;;;27.30;52.60;;;;;;5118680;27;20394;-60
2021/08/03 13:37:21;;;;;;;;;;;27.30;52.40;;;;;;5132358;27;19974;-59
2021/08/03 13:39:51;;;;;;;;;;;27.30;52.50;;;;;;5116572;27;19923;-60
2021/08/03 13:42:22;;;;;;;;;;;27.30;52.40;;;;;;5135724;27;19963;-60
2021/08/03 13:44:49;;;;;;;;;;;27.30;52.40;;;;;;5135367;27;19927;-60
2021/08/03 13:47:17;;;;;;;;;;;27.40;52.70;;;;;;5134085;27;19933;-60
2021/08/03 13:49:45;;;;;;;;;;;27.30;52.60;;;;;;5135230;27;20437;-60
2021/08/03 13:52:12;;;;;;;;;;;27.30;52.50;;;;;;5133817;27;20394;-60
2021/08/03 13:54:39;;;;;;;;;;;27.40;52.50;;;;;;5134340;27;19962;-59
2021/08/03 13:57:06;;;;;;;;;;;27.40;52.60;;;;;;5116209;27;20342;-59
2021/08/03 13:59:33;;;;;;;;;;;27.40;52.40;;;;;;5133089;27;19924;-60
2021/08/03 14:02:03;;;;;;;;;;;27.40;52.40;;;;;;5115847;27;19970;-60
2021/08/03 14:04:33;;;;;;;;;;;27.40;52.40;;;;;;5133810;27;20010;-60
2021/08/03 14:07:00;;;;;;;;;;;27.30;52.40;;;;;;5134904;27;19972;-60
2021/08/03 14:09:28;;;;;;;;;;;27.40;52.40;;;;;;5135010;27;20325;-61
2021/08/03 14:11:56;;;;;;;;;;;27.40;52.30;;;;;;5135043;27;19938;-60
2021/08/03 14:14:23;;;;;;;;;;;27.40;52.50;;;;;;5133679;27;20320;-59
2021/08/03 14:16:52;;;;;;;;;;;27.40;52.40;;;;;;5135024;27;19923;-60
2021/08/03 14:19:20;;;;;;;;;;;27.30;52.30;;;;;;5135112;27;19923;-59
2021/08/03 14:21:47;;;;;;;;;;;27.30;52.20;;;;;;5134484;27;19949;-61
2021/08/03 14:24:15;;;;;;;;;;;27.30;52.10;;;;;;5134280;27;19931;-59
2021/08/03 14:26:43;;;;;;;;;;;27.40;51.90;;;;;;5133101;27;20026;-60